sensor_id;sensor_type;location;lat;lon;timestamp;temperature;humidity
4374;DHT22;2201;51.100;6.814;2023-09-19T00:00:17;16.80;98.20
4374;DHT22;2201;51.100;6.814;2023-09-19T00:02:46;16.80;98.20
4374;DHT22;2201;51.100;6.814;2023-09-19T00:05:18;16.80;98.20
4374;DHT22;2201;51.100;6.814;2023-09-19T00:07:49;16.80;98.20
4374;DHT22;2201;51.100;6.814;2023-09-19T00:10:17;16.80;98.20
4374;DHT22;2201;51.100;6.814;2023-09-19T00:12:44;16.80;98.20
4374;DHT22;2201;51.100;6.814;2023-09-19T00:15:11;16.70;98.20
4374;DHT22;2201;51.100;6.814;2023-09-19T00:17:39;16.70;98.20
4374;DHT22;2201;51.100;6.814;2023-09-19T00:20:07;16.70;98.20
4374;DHT22;2201;51.100;6.814;2023-09-19T00:22:39;16.70;98.20
4374;DHT22;2201;51.100;6.814;2023-09-19T00:25:07;16.60;98.20
4374;DHT22;2201;51.100;6.814;2023-09-19T00:27:34;16.60;98.20
4374;DHT22;2201;51.100;6.814;2023-09-19T00:30:01;16.60;98.20
4374;DHT22;2201;51.100;6.814;2023-09-19T00:32:29;16.60;98.20
4374;DHT22;2201;51.100;6.814;2023-09-19T00:35:00;16.60;98.20
4374;DHT22;2201;51.100;6.814;2023-09-19T00:37:26;16.60;98.20
4374;DHT22;2201;51.100;6.814;2023-09-19T00:39:53;16.60;98.20
4374;DHT22;2201;51.100;6.814;2023-09-19T00:42:20;16.60;98.20
4374;DHT22;2201;51.100;6.814;2023-09-19T00:44:47;16.60;98.20
4374;DHT22;2201;51.100;6.814;2023-09-19T00:47:16;16.60;98.20
4374;DHT22;2201;51.100;6.814;2023-09-19T00:49:43;16.60;98.20
4374;DHT22;2201;51.100;6.814;2023-09-19T00:52:12;16.70;98.20
4374;DHT22;2201;51.100;6.814;2023-09-19T00:54:39;16.60;98.20
4374;DHT22;2201;51.100;6.814;2023-09-19T00:57:06;16.60;98.20
4374;DHT22;2201;51.100;6.814;2023-09-19T00:59:33;16.60;98.20
4374;DHT22;2201;51.100;6.814;2023-09-19T01:02:01;16.60;98.20
4374;DHT22;2201;51.100;6.814;2023-09-19T01:04:29;16.60;98.20
4374;DHT22;2201;51.100;6.814;2023-09-19T01:06:56;16.60;98.20
4374;DHT22;2201;51.100;6.814;2023-09-19T01:09:25;16.60;98.20
4374;DHT22;2201;51.100;6.814;2023-09-19T01:11:58;16.60;98.20
4374;DHT22;2201;51.100;6.814;2023-09-19T01:14:34;16.60;98.20
4374;DHT22;2201;51.100;6.814;2023-09-19T01:17:07;16.60;98.20
4374;DHT22;2201;51.100;6.814;2023-09-19T01:19:58;16.60;98.20
4374;DHT22;2201;51.100;6.814;2023-09-19T01:22:55;16.60;98.20
4374;DHT22;2201;51.100;6.814;2023-09-19T01:25:57;16.60;98.20
4374;DHT22;2201;51.100;6.814;2023-09-19T01:28:33;16.70;98.20
4374;DHT22;2201;51.100;6.814;2023-09-19T01:31:09;16.60;98.20
4374;DHT22;2201;51.100;6.814;2023-09-19T01:33:58;16.60;98.20
4374;DHT22;2201;51.100;6.814;2023-09-19T01:36:30;16.60;98.20
4374;DHT22;2201;51.100;6.814;2023-09-19T01:38:58;16.60;98.20
4374;DHT22;2201;51.100;6.814;2023-09-19T01:41:32;16.60;98.20
4374;DHT22;2201;51.100;6.814;2023-09-19T01:44:01;16.60;98.20
4374;DHT22;2201;51.100;6.814;2023-09-19T01:46:34;16.60;98.20
4374;DHT22;2201;51.100;6.814;2023-09-19T01:49:08;16.60;98.20
4374;DHT22;2201;51.100;6.814;2023-09-19T01:51:42;16.60;98.20
4374;DHT22;2201;51.100;6.814;2023-09-19T01:54:15;16.60;98.20
4374;DHT22;2201;51.100;6.814;2023-09-19T01:56:49;16.60;98.20
4374;DHT22;2201;51.100;6.814;2023-09-19T01:59:22;16.60;98.20
4374;DHT22;2201;51.100;6.814;2023-09-19T02:01:54;16.60;98.20
4374;DHT22;2201;51.100;6.814;2023-09-19T02:04:21;16.60;98.20
4374;DHT22;2201;51.100;6.814;2023-09-19T02:06:48;16.60;98.20
4374;DHT22;2201;51.100;6.814;2023-09-19T02:09:17;16.60;98.20
4374;DHT22;2201;51.100;6.814;2023-09-19T02:11:43;16.60;98.20
4374;DHT22;2201;51.100;6.814;2023-09-19T02:14:10;16.60;98.20
4374;DHT22;2201;51.100;6.814;2023-09-19T02:16:37;16.50;98.20
4374;DHT22;2201;51.100;6.814;2023-09-19T02:19:05;16.60;98.20
4374;DHT22;2201;51.100;6.814;2023-09-19T02:21:33;16.60;98.20
4374;DHT22;2201;51.100;6.814;2023-09-19T02:24:00;16.60;98.20
4374;DHT22;2201;51.100;6.814;2023-09-19T02:26:26;16.50;98.20
4374;DHT22;2201;51.100;6.814;2023-09-19T02:28:53;16.50;98.20
4374;DHT22;2201;51.100;6.814;2023-09-19T02:31:20;16.50;98.20
4374;DHT22;2201;51.100;6.814;2023-09-19T02:33:47;16.50;98.20
4374;DHT22;2201;51.100;6.814;2023-09-19T02:36:15;16.50;98.20
4374;DHT22;2201;51.100;6.814;2023-09-19T02:38:42;16.50;98.20
4374;DHT22;2201;51.100;6.814;2023-09-19T02:41:09;16.50;98.20
4374;DHT22;2201;51.100;6.814;2023-09-19T02:43:37;16.50;98.20
4374;DHT22;2201;51.100;6.814;2023-09-19T02:46:04;16.40;98.20
4374;DHT22;2201;51.100;6.814;2023-09-19T02:48:31;16.40;98.20
4374;DHT22;2201;51.100;6.814;2023-09-19T02:51:00;16.40;98.20
4374;DHT22;2201;51.100;6.814;2023-09-19T02:53:28;16.40;98.20
4374;DHT22;2201;51.100;6.814;2023-09-19T02:55:56;16.40;98.20
4374;DHT22;2201;51.100;6.814;2023-09-19T02:58:24;16.30;98.20
4374;DHT22;2201;51.100;6.814;2023-09-19T03:00:53;16.30;98.20
4374;DHT22;2201;51.100;6.814;2023-09-19T03:03:20;16.30;98.20
4374;DHT22;2201;51.100;6.814;2023-09-19T03:05:48;16.30;98.20
4374;DHT22;2201;51.100;6.814;2023-09-19T03:08:17;16.20;98.20
4374;DHT22;2201;51.100;6.814;2023-09-19T03:10:47;16.20;98.20
4374;DHT22;2201;51.100;6.814;2023-09-19T03:13:14;16.20;98.20
4374;DHT22;2201;51.100;6.814;2023-09-19T03:15:41;16.10;98.20
4374;DHT22;2201;51.100;6.814;2023-09-19T03:18:09;16.10;98.20
4374;DHT22;2201;51.100;6.814;2023-09-19T03:20:36;16.10;98.20
4374;DHT22;2201;51.100;6.814;2023-09-19T03:23:04;16.10;98.20
4374;DHT22;2201;51.100;6.814;2023-09-19T03:25:33;16.10;98.20
4374;DHT22;2201;51.100;6.814;2023-09-19T03:28:02;16.10;98.20
4374;DHT22;2201;51.100;6.814;2023-09-19T03:30:31;16.00;98.20
4374;DHT22;2201;51.100;6.814;2023-09-19T03:32:59;16.00;98.20
4374;DHT22;2201;51.100;6.814;2023-09-19T03:35:26;16.00;98.20
4374;DHT22;2201;51.100;6.814;2023-09-19T03:37:53;16.00;98.20
4374;DHT22;2201;51.100;6.814;2023-09-19T03:40:19;16.00;98.20
4374;DHT22;2201;51.100;6.814;2023-09-19T03:42:47;16.00;98.20
4374;DHT22;2201;51.100;6.814;2023-09-19T03:45:15;15.90;98.20
4374;DHT22;2201;51.100;6.814;2023-09-19T03:47:44;15.90;98.20
4374;DHT22;2201;51.100;6.814;2023-09-19T03:50:12;16.00;98.20
4374;DHT22;2201;51.100;6.814;2023-09-19T03:52:40;15.90;98.20
4374;DHT22;2201;51.100;6.814;2023-09-19T03:55:08;15.90;98.20
4374;DHT22;2201;51.100;6.814;2023-09-19T03:57:35;15.90;98.20
4374;DHT22;2201;51.100;6.814;2023-09-19T04:00:02;15.90;98.20
4374;DHT22;2201;51.100;6.814;2023-09-19T04:02:30;15.90;98.20
4374;DHT22;2201;51.100;6.814;2023-09-19T04:04:58;15.80;98.20
4374;DHT22;2201;51.100;6.814;2023-09-19T04:07:25;15.80;98.20
4374;DHT22;2201;51.100;6.814;2023-09-19T04:09:54;15.80;98.20
4374;DHT22;2201;51.100;6.814;2023-09-19T04:12:21;15.80;98.20
4374;DHT22;2201;51.100;6.814;2023-09-19T04:14:48;15.80;98.20
4374;DHT22;2201;51.100;6.814;2023-09-19T04:17:15;15.80;98.20
4374;DHT22;2201;51.100;6.814;2023-09-19T04:19:43;15.80;98.20
4374;DHT22;2201;51.100;6.814;2023-09-19T04:22:11;15.70;98.20
4374;DHT22;2201;51.100;6.814;2023-09-19T04:24:38;15.70;98.20
4374;DHT22;2201;51.100;6.814;2023-09-19T04:27:05;15.70;98.20
4374;DHT22;2201;51.100;6.814;2023-09-19T04:29:32;15.70;98.20
4374;DHT22;2201;51.100;6.814;2023-09-19T04:31:59;15.70;98.20
4374;DHT22;2201;51.100;6.814;2023-09-19T04:34:26;15.70;98.20
4374;DHT22;2201;51.100;6.814;2023-09-19T04:36:54;15.70;98.20
4374;DHT22;2201;51.100;6.814;2023-09-19T04:39:22;15.70;98.20
4374;DHT22;2201;51.100;6.814;2023-09-19T04:41:50;15.60;98.20
4374;DHT22;2201;51.100;6.814;2023-09-19T04:44:18;15.70;98.20
4374;DHT22;2201;51.100;6.814;2023-09-19T04:46:45;15.60;98.20
4374;DHT22;2201;51.100;6.814;2023-09-19T04:49:13;15.60;98.20
4374;DHT22;2201;51.100;6.814;2023-09-19T04:51:40;15.70;98.20
4374;DHT22;2201;51.100;6.814;2023-09-19T04:54:09;15.60;98.20
4374;DHT22;2201;51.100;6.814;2023-09-19T04:56:36;15.60;98.20
4374;DHT22;2201;51.100;6.814;2023-09-19T04:59:05;15.60;98.20
4374;DHT22;2201;51.100;6.814;2023-09-19T05:01:32;15.60;98.20
4374;DHT22;2201;51.100;6.814;2023-09-19T05:03:59;15.60;98.20
4374;DHT22;2201;51.100;6.814;2023-09-19T05:06:26;15.60;98.20
4374;DHT22;2201;51.100;6.814;2023-09-19T05:08:53;15.60;98.20
4374;DHT22;2201;51.100;6.814;2023-09-19T05:11:21;15.60;98.20
4374;DHT22;2201;51.100;6.814;2023-09-19T05:13:50;15.50;98.20
4374;DHT22;2201;51.100;6.814;2023-09-19T05:16:18;15.50;98.20
4374;DHT22;2201;51.100;6.814;2023-09-19T05:18:45;15.50;98.20
4374;DHT22;2201;51.100;6.814;2023-09-19T05:21:12;15.50;98.20
4374;DHT22;2201;51.100;6.814;2023-09-19T05:23:39;15.50;98.20
4374;DHT22;2201;51.100;6.814;2023-09-19T05:26:06;15.50;98.20
4374;DHT22;2201;51.100;6.814;2023-09-19T05:28:34;15.50;98.20
4374;DHT22;2201;51.100;6.814;2023-09-19T05:31:01;15.50;98.20
4374;DHT22;2201;51.100;6.814;2023-09-19T05:33:28;15.50;98.20
4374;DHT22;2201;51.100;6.814;2023-09-19T05:35:57;15.50;98.20
4374;DHT22;2201;51.100;6.814;2023-09-19T05:38:24;15.50;98.20
4374;DHT22;2201;51.100;6.814;2023-09-19T05:40:53;15.60;98.20
4374;DHT22;2201;51.100;6.814;2023-09-19T05:43:19;15.60;98.20
4374;DHT22;2201;51.100;6.814;2023-09-19T05:45:48;15.60;98.20
4374;DHT22;2201;51.100;6.814;2023-09-19T05:48:17;15.70;98.20
4374;DHT22;2201;51.100;6.814;2023-09-19T05:50:46;15.70;98.20
4374;DHT22;2201;51.100;6.814;2023-09-19T05:53:14;15.70;98.20
4374;DHT22;2201;51.100;6.814;2023-09-19T05:55:41;15.80;98.20
4374;DHT22;2201;51.100;6.814;2023-09-19T05:58:08;15.80;98.20
4374;DHT22;2201;51.100;6.814;2023-09-19T06:00:37;15.80;98.20
4374;DHT22;2201;51.100;6.814;2023-09-19T06:03:08;15.90;98.20
4374;DHT22;2201;51.100;6.814;2023-09-19T06:05:35;15.90;98.20
4374;DHT22;2201;51.100;6.814;2023-09-19T06:08:05;15.90;98.20
4374;DHT22;2201;51.100;6.814;2023-09-19T06:10:33;16.00;98.20
4374;DHT22;2201;51.100;6.814;2023-09-19T06:13:01;16.00;98.20
4374;DHT22;2201;51.100;6.814;2023-09-19T06:15:29;16.10;98.20
4374;DHT22;2201;51.100;6.814;2023-09-19T06:17:59;16.10;98.20
4374;DHT22;2201;51.100;6.814;2023-09-19T06:20:29;16.10;98.20
4374;DHT22;2201;51.100;6.814;2023-09-19T06:22:56;16.20;98.20
4374;DHT22;2201;51.100;6.814;2023-09-19T06:25:23;16.20;98.20
4374;DHT22;2201;51.100;6.814;2023-09-19T06:27:51;16.20;98.20
4374;DHT22;2201;51.100;6.814;2023-09-19T06:30:19;16.30;98.20
4374;DHT22;2201;51.100;6.814;2023-09-19T06:32:47;16.30;98.20
4374;DHT22;2201;51.100;6.814;2023-09-19T06:35:15;16.30;98.20
4374;DHT22;2201;51.100;6.814;2023-09-19T06:37:43;16.40;98.20
4374;DHT22;2201;51.100;6.814;2023-09-19T06:40:11;16.40;98.20
4374;DHT22;2201;51.100;6.814;2023-09-19T06:42:40;16.40;98.20
4374;DHT22;2201;51.100;6.814;2023-09-19T06:45:08;16.40;98.20
4374;DHT22;2201;51.100;6.814;2023-09-19T06:47:37;16.50;98.20
4374;DHT22;2201;51.100;6.814;2023-09-19T06:50:04;16.50;98.20
4374;DHT22;2201;51.100;6.814;2023-09-19T06:52:34;16.50;98.20
4374;DHT22;2201;51.100;6.814;2023-09-19T06:55:02;16.50;98.20
4374;DHT22;2201;51.100;6.814;2023-09-19T06:57:30;16.60;98.20
4374;DHT22;2201;51.100;6.814;2023-09-19T06:59:57;16.60;98.20
4374;DHT22;2201;51.100;6.814;2023-09-19T07:02:23;16.60;98.20
4374;DHT22;2201;51.100;6.814;2023-09-19T07:04:50;16.60;98.20
4374;DHT22;2201;51.100;6.814;2023-09-19T07:07:17;16.70;98.20
4374;DHT22;2201;51.100;6.814;2023-09-19T07:09:44;16.70;98.20
4374;DHT22;2201;51.100;6.814;2023-09-19T07:12:12;16.80;98.20
4374;DHT22;2201;51.100;6.814;2023-09-19T07:14:39;16.80;98.20
4374;DHT22;2201;51.100;6.814;2023-09-19T07:17:06;16.90;98.20
4374;DHT22;2201;51.100;6.814;2023-09-19T07:19:34;17.00;98.20
4374;DHT22;2201;51.100;6.814;2023-09-19T07:22:03;17.00;98.20
4374;DHT22;2201;51.100;6.814;2023-09-19T07:24:30;17.10;98.20
4374;DHT22;2201;51.100;6.814;2023-09-19T07:26:58;17.10;98.20
4374;DHT22;2201;51.100;6.814;2023-09-19T07:29:26;17.20;98.20
4374;DHT22;2201;51.100;6.814;2023-09-19T07:31:53;17.20;98.20
4374;DHT22;2201;51.100;6.814;2023-09-19T07:34:20;17.30;98.20
4374;DHT22;2201;51.100;6.814;2023-09-19T07:36:48;17.40;98.20
4374;DHT22;2201;51.100;6.814;2023-09-19T07:39:15;17.50;98.20
4374;DHT22;2201;51.100;6.814;2023-09-19T07:41:42;17.60;98.20
4374;DHT22;2201;51.100;6.814;2023-09-19T07:44:09;17.70;98.20
4374;DHT22;2201;51.100;6.814;2023-09-19T07:46:37;17.80;98.20
4374;DHT22;2201;51.100;6.814;2023-09-19T07:49:04;17.90;98.20
4374;DHT22;2201;51.100;6.814;2023-09-19T07:51:31;18.00;98.20
4374;DHT22;2201;51.100;6.814;2023-09-19T07:53:59;18.10;98.20
4374;DHT22;2201;51.100;6.814;2023-09-19T07:56:26;18.20;98.20
4374;DHT22;2201;51.100;6.814;2023-09-19T07:58:53;18.30;98.20
4374;DHT22;2201;51.100;6.814;2023-09-19T08:01:20;18.40;98.20
4374;DHT22;2201;51.100;6.814;2023-09-19T08:03:50;18.40;98.20
4374;DHT22;2201;51.100;6.814;2023-09-19T08:06:17;18.50;98.20
4374;DHT22;2201;51.100;6.814;2023-09-19T08:08:45;18.60;98.20
4374;DHT22;2201;51.100;6.814;2023-09-19T08:11:12;18.70;98.20
4374;DHT22;2201;51.100;6.814;2023-09-19T08:13:47;18.70;98.20
4374;DHT22;2201;51.100;6.814;2023-09-19T08:16:15;18.80;98.20
4374;DHT22;2201;51.100;6.814;2023-09-19T08:18:47;18.80;98.20
4374;DHT22;2201;51.100;6.814;2023-09-19T08:21:15;18.90;98.20
4374;DHT22;2201;51.100;6.814;2023-09-19T08:23:42;19.00;98.20
4374;DHT22;2201;51.100;6.814;2023-09-19T08:26:08;19.10;98.20
4374;DHT22;2201;51.100;6.814;2023-09-19T08:28:35;19.10;98.20
4374;DHT22;2201;51.100;6.814;2023-09-19T08:31:07;19.10;98.20
4374;DHT22;2201;51.100;6.814;2023-09-19T08:33:35;19.20;98.20
4374;DHT22;2201;51.100;6.814;2023-09-19T08:36:02;19.30;98.20
4374;DHT22;2201;51.100;6.814;2023-09-19T08:38:33;19.30;98.20
4374;DHT22;2201;51.100;6.814;2023-09-19T08:41:01;19.40;98.20
4374;DHT22;2201;51.100;6.814;2023-09-19T08:43:31;19.50;98.20
4374;DHT22;2201;51.100;6.814;2023-09-19T08:46:09;19.60;98.20
4374;DHT22;2201;51.100;6.814;2023-09-19T08:48:39;19.60;98.20
4374;DHT22;2201;51.100;6.814;2023-09-19T08:51:07;19.80;98.20
4374;DHT22;2201;51.100;6.814;2023-09-19T08:53:42;19.80;98.20
4374;DHT22;2201;51.100;6.814;2023-09-19T08:56:12;19.90;98.20
4374;DHT22;2201;51.100;6.814;2023-09-19T08:58:45;20.00;98.20
4374;DHT22;2201;51.100;6.814;2023-09-19T09:01:15;20.10;98.20
4374;DHT22;2201;51.100;6.814;2023-09-19T09:03:43;20.20;98.20
4374;DHT22;2201;51.100;6.814;2023-09-19T09:06:14;20.30;98.20
4374;DHT22;2201;51.100;6.814;2023-09-19T09:08:43;20.40;98.20
4374;DHT22;2201;51.100;6.814;2023-09-19T09:11:11;20.50;98.20
4374;DHT22;2201;51.100;6.814;2023-09-19T09:13:38;20.60;98.20
4374;DHT22;2201;51.100;6.814;2023-09-19T09:16:07;20.70;98.20
4374;DHT22;2201;51.100;6.814;2023-09-19T09:18:34;20.80;97.70
4374;DHT22;2201;51.100;6.814;2023-09-19T09:21:00;20.90;97.50
4374;DHT22;2201;51.100;6.814;2023-09-19T09:23:27;20.80;96.80
4374;DHT22;2201;51.100;6.814;2023-09-19T09:25:57;20.80;95.70
4374;DHT22;2201;51.100;6.814;2023-09-19T09:28:28;20.80;95.30
4374;DHT22;2201;51.100;6.814;2023-09-19T09:30:56;20.90;96.20
4374;DHT22;2201;51.100;6.814;2023-09-19T09:33:24;21.00;96.80
4374;DHT22;2201;51.100;6.814;2023-09-19T09:35:53;21.10;95.70
4374;DHT22;2201;51.100;6.814;2023-09-19T09:38:23;21.20;97.10
4374;DHT22;2201;51.100;6.814;2023-09-19T09:40:53;21.40;95.40
4374;DHT22;2201;51.100;6.814;2023-09-19T09:43:29;21.50;93.10
4374;DHT22;2201;51.100;6.814;2023-09-19T09:46:07;21.60;93.10
4374;DHT22;2201;51.100;6.814;2023-09-19T09:48:56;21.70;92.90
4374;DHT22;2201;51.100;6.814;2023-09-19T09:51:40;21.80;92.70
4374;DHT22;2201;51.100;6.814;2023-09-19T09:54:12;21.80;92.70
4374;DHT22;2201;51.100;6.814;2023-09-19T09:56:52;22.00;91.70
4374;DHT22;2201;51.100;6.814;2023-09-19T09:59:21;22.00;91.70
4374;DHT22;2201;51.100;6.814;2023-09-19T10:01:49;22.00;91.60
4374;DHT22;2201;51.100;6.814;2023-09-19T10:04:27;22.10;91.50
4374;DHT22;2201;51.100;6.814;2023-09-19T10:06:57;22.20;91.70
4374;DHT22;2201;51.100;6.814;2023-09-19T10:09:30;22.20;91.90
4374;DHT22;2201;51.100;6.814;2023-09-19T10:12:05;22.20;92.00
4374;DHT22;2201;51.100;6.814;2023-09-19T10:14:37;22.40;90.10
4374;DHT22;2201;51.100;6.814;2023-09-19T10:17:05;22.40;90.20
4374;DHT22;2201;51.100;6.814;2023-09-19T10:19:37;22.40;90.90
4374;DHT22;2201;51.100;6.814;2023-09-19T10:22:12;22.50;90.30
4374;DHT22;2201;51.100;6.814;2023-09-19T10:24:43;22.70;90.20
4374;DHT22;2201;51.100;6.814;2023-09-19T10:27:12;22.80;89.40
4374;DHT22;2201;51.100;6.814;2023-09-19T10:29:48;22.80;88.10
4374;DHT22;2201;51.100;6.814;2023-09-19T10:32:26;22.80;86.90
4374;DHT22;2201;51.100;6.814;2023-09-19T10:34:55;22.60;88.70
4374;DHT22;2201;51.100;6.814;2023-09-19T10:37:24;22.50;89.20
4374;DHT22;2201;51.100;6.814;2023-09-19T10:39:54;22.40;89.30
4374;DHT22;2201;51.100;6.814;2023-09-19T10:42:23;22.30;89.20
4374;DHT22;2201;51.100;6.814;2023-09-19T10:44:58;22.40;91.50
4374;DHT22;2201;51.100;6.814;2023-09-19T10:47:26;22.50;90.80
4374;DHT22;2201;51.100;6.814;2023-09-19T10:49:53;22.50;88.50
4374;DHT22;2201;51.100;6.814;2023-09-19T10:52:23;22.50;88.80
4374;DHT22;2201;51.100;6.814;2023-09-19T10:54:51;22.50;89.80
4374;DHT22;2201;51.100;6.814;2023-09-19T10:57:20;22.60;89.10
4374;DHT22;2201;51.100;6.814;2023-09-19T11:00:04;22.50;88.30
4374;DHT22;2201;51.100;6.814;2023-09-19T11:03:17;22.40;89.60
4374;DHT22;2201;51.100;6.814;2023-09-19T11:06:01;22.40;91.00
4374;DHT22;2201;51.100;6.814;2023-09-19T11:08:31;22.50;89.70
4374;DHT22;2201;51.100;6.814;2023-09-19T11:11:41;22.60;89.90
4374;DHT22;2201;51.100;6.814;2023-09-19T11:14:28;22.70;89.00
4374;DHT22;2201;51.100;6.814;2023-09-19T11:20:21;22.90;87.20
4374;DHT22;2201;51.100;6.814;2023-09-19T11:23:20;22.90;87.10
4374;DHT22;2201;51.100;6.814;2023-09-19T11:25:53;23.00;87.00
4374;DHT22;2201;51.100;6.814;2023-09-19T11:28:33;23.10;88.30
4374;DHT22;2201;51.100;6.814;2023-09-19T11:37:05;23.50;85.70
4374;DHT22;2201;51.100;6.814;2023-09-19T11:40:06;23.50;85.90
4374;DHT22;2201;51.100;6.814;2023-09-19T11:42:42;23.70;86.20
4374;DHT22;2201;51.100;6.814;2023-09-19T11:48:27;23.70;85.60
4374;DHT22;2201;51.100;6.814;2023-09-19T11:50:54;23.80;85.70
4374;DHT22;2201;51.100;6.814;2023-09-19T11:53:24;23.90;83.40
4374;DHT22;2201;51.100;6.814;2023-09-19T11:55:58;24.00;82.70
4374;DHT22;2201;51.100;6.814;2023-09-19T11:58:26;24.00;82.20
4374;DHT22;2201;51.100;6.814;2023-09-19T12:00:55;24.10;82.20
4374;DHT22;2201;51.100;6.814;2023-09-19T12:03:29;24.10;81.90
4374;DHT22;2201;51.100;6.814;2023-09-19T12:05:56;24.10;80.20
4374;DHT22;2201;51.100;6.814;2023-09-19T12:08:25;24.20;81.20
4374;DHT22;2201;51.100;6.814;2023-09-19T12:10:53;24.20;79.00
4374;DHT22;2201;51.100;6.814;2023-09-19T12:13:21;24.10;80.30
4374;DHT22;2201;51.100;6.814;2023-09-19T12:15:48;24.20;80.90
4374;DHT22;2201;51.100;6.814;2023-09-19T12:18:27;24.20;81.10
4374;DHT22;2201;51.100;6.814;2023-09-19T12:20:55;24.40;81.70
4374;DHT22;2201;51.100;6.814;2023-09-19T12:23:23;24.40;79.90
4374;DHT22;2201;51.100;6.814;2023-09-19T12:25:53;24.40;79.00
4374;DHT22;2201;51.100;6.814;2023-09-19T12:28:24;24.50;79.00
4374;DHT22;2201;51.100;6.814;2023-09-19T12:30:52;24.50;79.50
4374;DHT22;2201;51.100;6.814;2023-09-19T12:33:21;24.60;78.40
4374;DHT22;2201;51.100;6.814;2023-09-19T12:35:50;24.60;78.50
4374;DHT22;2201;51.100;6.814;2023-09-19T12:38:27;24.70;79.40
4374;DHT22;2201;51.100;6.814;2023-09-19T12:44:14;24.70;77.50
4374;DHT22;2201;51.100;6.814;2023-09-19T12:46:43;24.70;77.20
4374;DHT22;2201;51.100;6.814;2023-09-19T12:49:18;24.70;77.70
4374;DHT22;2201;51.100;6.814;2023-09-19T12:51:46;24.70;77.20
4374;DHT22;2201;51.100;6.814;2023-09-19T12:54:13;24.70;77.60
4374;DHT22;2201;51.100;6.814;2023-09-19T12:56:42;24.70;76.90
4374;DHT22;2201;51.100;6.814;2023-09-19T12:59:14;24.70;77.30
4374;DHT22;2201;51.100;6.814;2023-09-19T13:01:42;24.70;76.90
4374;DHT22;2201;51.100;6.814;2023-09-19T13:04:13;24.70;76.60
4374;DHT22;2201;51.100;6.814;2023-09-19T13:06:41;24.60;76.60
4374;DHT22;2201;51.100;6.814;2023-09-19T13:09:09;24.60;76.50
4374;DHT22;2201;51.100;6.814;2023-09-19T13:11:37;24.60;78.30
4374;DHT22;2201;51.100;6.814;2023-09-19T13:14:19;24.70;77.20
4374;DHT22;2201;51.100;6.814;2023-09-19T13:17:00;24.70;76.50
4374;DHT22;2201;51.100;6.814;2023-09-19T13:19:41;24.80;76.30
4374;DHT22;2201;51.100;6.814;2023-09-19T13:22:36;24.70;76.40
4374;DHT22;2201;51.100;6.814;2023-09-19T13:25:05;24.70;76.80
4374;DHT22;2201;51.100;6.814;2023-09-19T13:27:33;24.60;77.60
4374;DHT22;2201;51.100;6.814;2023-09-19T13:30:01;24.30;77.30
4374;DHT22;2201;51.100;6.814;2023-09-19T13:32:32;24.20;80.10
4374;DHT22;2201;51.100;6.814;2023-09-19T13:34:59;24.40;79.00
4374;DHT22;2201;51.100;6.814;2023-09-19T13:37:25;24.60;78.80
4374;DHT22;2201;51.100;6.814;2023-09-19T13:39:53;24.80;79.70
4374;DHT22;2201;51.100;6.814;2023-09-19T13:42:20;25.00;79.50
4374;DHT22;2201;51.100;6.814;2023-09-19T13:44:47;25.00;78.30
4374;DHT22;2201;51.100;6.814;2023-09-19T13:47:15;24.80;78.70
4374;DHT22;2201;51.100;6.814;2023-09-19T13:49:42;24.50;78.50
4374;DHT22;2201;51.100;6.814;2023-09-19T13:52:09;24.30;78.90
4374;DHT22;2201;51.100;6.814;2023-09-19T13:54:38;24.10;80.30
4374;DHT22;2201;51.100;6.814;2023-09-19T13:57:05;24.00;80.90
4374;DHT22;2201;51.100;6.814;2023-09-19T13:59:33;24.00;81.40
4374;DHT22;2201;51.100;6.814;2023-09-19T14:01:59;23.80;81.80
4374;DHT22;2201;51.100;6.814;2023-09-19T14:04:29;23.70;82.50
4374;DHT22;2201;51.100;6.814;2023-09-19T14:06:56;23.40;82.30
4374;DHT22;2201;51.100;6.814;2023-09-19T14:09:23;23.40;83.00
4374;DHT22;2201;51.100;6.814;2023-09-19T14:11:50;23.30;84.10
4374;DHT22;2201;51.100;6.814;2023-09-19T14:14:18;23.20;83.80
4374;DHT22;2201;51.100;6.814;2023-09-19T14:16:46;23.10;83.60
4374;DHT22;2201;51.100;6.814;2023-09-19T14:19:13;23.00;83.70
4374;DHT22;2201;51.100;6.814;2023-09-19T14:21:42;22.90;84.20
4374;DHT22;2201;51.100;6.814;2023-09-19T14:24:09;22.70;84.60
4374;DHT22;2201;51.100;6.814;2023-09-19T14:26:38;22.70;85.50
4374;DHT22;2201;51.100;6.814;2023-09-19T14:29:05;22.80;86.00
4374;DHT22;2201;51.100;6.814;2023-09-19T14:31:33;22.90;85.30
4374;DHT22;2201;51.100;6.814;2023-09-19T14:34:00;22.90;85.50
4374;DHT22;2201;51.100;6.814;2023-09-19T14:36:27;22.90;85.80
4374;DHT22;2201;51.100;6.814;2023-09-19T14:38:59;23.00;85.80
4374;DHT22;2201;51.100;6.814;2023-09-19T14:41:40;22.90;85.30
4374;DHT22;2201;51.100;6.814;2023-09-19T14:44:07;22.90;85.20
4374;DHT22;2201;51.100;6.814;2023-09-19T14:46:35;22.90;84.80
4374;DHT22;2201;51.100;6.814;2023-09-19T14:49:02;22.90;85.50
4374;DHT22;2201;51.100;6.814;2023-09-19T14:51:30;23.00;86.00
4374;DHT22;2201;51.100;6.814;2023-09-19T14:53:58;22.90;85.30
4374;DHT22;2201;51.100;6.814;2023-09-19T14:56:27;22.80;85.30
4374;DHT22;2201;51.100;6.814;2023-09-19T14:58:55;22.60;85.70
4374;DHT22;2201;51.100;6.814;2023-09-19T15:01:22;22.50;85.70
4374;DHT22;2201;51.100;6.814;2023-09-19T15:03:49;22.40;86.00
4374;DHT22;2201;51.100;6.814;2023-09-19T15:06:16;22.30;86.40
4374;DHT22;2201;51.100;6.814;2023-09-19T15:08:46;22.20;86.90
4374;DHT22;2201;51.100;6.814;2023-09-19T15:11:15;22.10;87.10
4374;DHT22;2201;51.100;6.814;2023-09-19T15:13:43;22.00;88.10
4374;DHT22;2201;51.100;6.814;2023-09-19T15:16:10;21.90;87.60
4374;DHT22;2201;51.100;6.814;2023-09-19T15:18:39;21.90;87.40
4374;DHT22;2201;51.100;6.814;2023-09-19T15:21:10;21.80;87.70
4374;DHT22;2201;51.100;6.814;2023-09-19T15:23:52;21.80;87.60
4374;DHT22;2201;51.100;6.814;2023-09-19T15:26:24;21.80;87.80
4374;DHT22;2201;51.100;6.814;2023-09-19T15:28:56;21.70;88.10
4374;DHT22;2201;51.100;6.814;2023-09-19T15:31:23;21.70;88.10
4374;DHT22;2201;51.100;6.814;2023-09-19T15:34:02;21.60;88.00
4374;DHT22;2201;51.100;6.814;2023-09-19T15:39:47;21.50;88.30
4374;DHT22;2201;51.100;6.814;2023-09-19T15:42:20;21.40;88.50
4374;DHT22;2201;51.100;6.814;2023-09-19T15:45:01;21.40;88.60
4374;DHT22;2201;51.100;6.814;2023-09-19T15:47:32;21.40;89.00
4374;DHT22;2201;51.100;6.814;2023-09-19T15:52:53;21.40;88.80
4374;DHT22;2201;51.100;6.814;2023-09-19T15:55:39;21.50;89.20
4374;DHT22;2201;51.100;6.814;2023-09-19T15:58:24;21.50;89.00
4374;DHT22;2201;51.100;6.814;2023-09-19T16:00:52;21.50;89.10
4374;DHT22;2201;51.100;6.814;2023-09-19T16:03:19;21.50;89.30
4374;DHT22;2201;51.100;6.814;2023-09-19T16:05:47;21.40;88.90
4374;DHT22;2201;51.100;6.814;2023-09-19T16:08:14;21.40;89.60
4374;DHT22;2201;51.100;6.814;2023-09-19T16:10:48;21.40;89.40
4374;DHT22;2201;51.100;6.814;2023-09-19T16:13:21;21.40;89.50
4374;DHT22;2201;51.100;6.814;2023-09-19T16:15:52;21.40;89.70
4374;DHT22;2201;51.100;6.814;2023-09-19T16:18:21;21.30;89.70
4374;DHT22;2201;51.100;6.814;2023-09-19T16:20:49;21.30;89.60
4374;DHT22;2201;51.100;6.814;2023-09-19T16:23:17;21.30;89.70
4374;DHT22;2201;51.100;6.814;2023-09-19T16:25:46;21.30;89.20
4374;DHT22;2201;51.100;6.814;2023-09-19T16:28:14;21.30;89.90
4374;DHT22;2201;51.100;6.814;2023-09-19T16:30:42;21.30;90.10
4374;DHT22;2201;51.100;6.814;2023-09-19T16:33:09;21.30;89.50
4374;DHT22;2201;51.100;6.814;2023-09-19T16:35:37;21.30;89.80
4374;DHT22;2201;51.100;6.814;2023-09-19T16:38:04;21.30;90.40
4374;DHT22;2201;51.100;6.814;2023-09-19T16:40:32;21.40;90.40